Time,TemperatureF,DewpointF,PressureIn,WindDirection,WindDirectionDegrees,WindSpeedMPH,WindSpeedGustMPH,Humidity,HourlyPrecipIn,Conditions,Clouds,dailyrainin,SoftwareType,DateUTC
2013-09-16 00:11:00,64.4,54.0,30.09,WSW,245,1.0,6.0,70,0.00,,,0.00,weatherlink.com 1.10,2013-09-16 04:11:00,
2013-09-16 00:26:00,64.3,55.0,30.08,ENE,61,1.0,5.0,71,0.00,,,0.00,weatherlink.com 1.10,2013-09-16 04:26:00,
2013-09-16 00:41:00,64.2,55.0,30.08,WSW,248,3.0,7.0,72,0.00,,,0.00,weatherlink.com 1.10,2013-09-16 04:41:00,
2013-09-16 00:56:00,64.1,55.0,30.07,WSW,238,2.0,3.0,73,0.00,,,0.00,weatherlink.com 1.10,2013-09-16 04:56:00,
2013-09-16 01:11:00,64.1,56.0,30.07,SW,221,2.0,4.0,74,0.00,,,0.00,weatherlink.com 1.10,2013-09-16 05:11:00,
2013-09-16 01:26:00,63.9,56.0,30.07,NW,305,0.0,4.0,75,0.00,,,0.00,weatherlink.com 1.10,2013-09-16 05:26:00,
2013-09-16 01:41:00,63.8,56.0,30.07,NNW,345,1.0,4.0,76,0.00,,,0.00,weatherlink.com 1.10,2013-09-16 05:41:00,
2013-09-16 01:56:00,63.6,56.0,30.06,West,268,1.0,4.0,76,0.00,,,0.00,weatherlink.com 1.10,2013-09-16 05:56:00,
2013-09-16 02:11:00,63.6,56.0,30.06,SW,214,1.0,6.0,76,0.00,,,0.00,weatherlink.com 1.10,2013-09-16 06:11:00,
2013-09-16 02:26:00,63.4,56.0,30.06,SSW,208,0.0,7.0,76,0.00,,,0.00,weatherlink.com 1.10,2013-09-16 06:26:00,
2013-09-16 02:41:00,63.2,56.0,30.05,SW,214,5.0,5.0,77,0.00,,,0.00,weatherlink.com 1.10,2013-09-16 06:41:00,
2013-09-16 02:56:00,63.2,56.0,30.05,WSW,242,0.0,4.0,77,0.00,,,0.00,weatherlink.com 1.10,2013-09-16 06:56:00,
2013-09-16 03:11:00,63.5,56.0,30.05,SW,218,2.0,3.0,77,0.00,,,0.00,weatherlink.com 1.10,2013-09-16 07:11:00,
2013-09-16 03:26:00,-999.0,-99.9,30.05,North,-999,-999.0,-999.0,-999,0.00,,,0.00,weatherlink.com 1.10,2013-09-16 07:26:00,
2013-09-16 03:41:00,-999.0,-99.9,30.05,North,-999,-999.0,-999.0,-999,0.00,,,0.00,weatherlink.com 1.10,2013-09-16 07:41:00,
2013-09-16 03:56:00,-999.0,-99.9,30.04,North,-999,-999.0,-999.0,-999,0.00,,,0.00,weatherlink.com 1.10,2013-09-16 07:56:00,
2013-09-16 04:11:00,-999.0,-99.9,30.04,North,-999,-999.0,-999.0,-999,0.00,,,0.00,weatherlink.com 1.10,2013-09-16 08:11:00,
2013-09-16 04:27:00,-999.0,-99.9,30.04,North,-999,-999.0,-999.0,-999,0.00,,,0.00,weatherlink.com 1.10,2013-09-16 08:27:00,
2013-09-16 04:42:00,-999.0,-99.9,30.03,North,-999,-999.0,-999.0,-999,0.00,,,0.00,weatherlink.com 1.10,2013-09-16 08:42:00,
2013-09-16 04:57:00,-999.0,-99.9,30.03,North,-999,-999.0,-999.0,-999,0.00,,,0.00,weatherlink.com 1.10,2013-09-16 08:57:00,
2013-09-16 05:12:00,-999.0,-99.9,30.03,North,-999,-999.0,-999.0,-999,0.00,,,0.00,weatherlink.com 1.10,2013-09-16 09:12:00,
2013-09-16 05:27:00,-999.0,-99.9,30.03,North,-999,-999.0,-999.0,-999,0.00,,,0.00,weatherlink.com 1.10,2013-09-16 09:27:00,
2013-09-16 05:42:00,-999.0,-99.9,30.03,North,-999,-999.0,-999.0,-999,0.00,,,0.00,weatherlink.com 1.10,2013-09-16 09:42:00,
2013-09-16 05:57:00,-999.0,-99.9,30.04,North,-999,-999.0,-999.0,-999,0.00,,,0.00,weatherlink.com 1.10,2013-09-16 09:57:00,
2013-09-16 06:12:00,-999.0,-99.9,30.04,North,-999,-999.0,-999.0,-999,0.00,,,0.00,weatherlink.com 1.10,2013-09-16 10:12:00,
2013-09-16 06:27:00,-999.0,-99.9,30.04,North,-999,-999.0,-999.0,-999,0.00,,,0.00,weatherlink.com 1.10,2013-09-16 10:27:00,
2013-09-16 06:42:00,-999.0,-99.9,30.04,North,-999,-999.0,-999.0,-999,0.00,,,0.00,weatherlink.com 1.10,2013-09-16 10:42:00,
2013-09-16 06:57:00,-999.0,-99.9,30.04,North,-999,-999.0,-999.0,-999,0.00,,,0.00,weatherlink.com 1.10,2013-09-16 10:57:00,
2013-09-16 07:12:00,-999.0,-99.9,30.04,North,-999,-999.0,-999.0,-999,0.00,,,0.00,weatherlink.com 1.10,2013-09-16 11:12:00,
2013-09-16 07:27:00,-999.0,-99.9,30.05,North,-999,-999.0,-999.0,-999,0.00,,,0.00,weatherlink.com 1.10,2013-09-16 11:27:00,
2013-09-16 07:42:00,-999.0,-99.9,30.05,North,-999,-999.0,-999.0,-999,0.00,,,0.00,weatherlink.com 1.10,2013-09-16 11:42:00,
2013-09-16 07:57:00,63.4,57.0,30.05,NW,313,0.0,6.0,79,0.00,,,0.00,weatherlink.com 1.10,2013-09-16 11:57:00,
2013-09-16 08:12:00,63.6,57.0,30.04,NNW,342,0.0,2.0,80,0.00,,,0.00,weatherlink.com 1.10,2013-09-16 12:12:00,
2013-09-16 08:28:00,63.2,58.0,30.05,West,277,0.0,4.0,82,0.01,,,0.01,weatherlink.com 1.10,2013-09-16 12:28:00,
2013-09-16 08:43:00,62.7,58.0,30.06,WSW,241,0.0,5.0,84,0.04,,,0.04,weatherlink.com 1.10,2013-09-16 12:43:00,
2013-09-16 08:58:00,62.5,58.0,30.06,North,354,0.0,5.0,85,0.04,,,0.04,weatherlink.com 1.10,2013-09-16 12:58:00,
2013-09-16 09:13:00,62.6,57.0,30.07,NNE,30,0.0,9.0,81,0.04,,,0.04,weatherlink.com 1.10,2013-09-16 13:13:00,
2013-09-16 09:28:00,62.7,56.0,30.08,SW,217,2.0,6.0,78,0.03,,,0.04,weatherlink.com 1.10,2013-09-16 13:28:00,
2013-09-16 09:43:00,62.5,56.0,30.08,NE,54,0.0,5.0,80,0.00,,,0.04,weatherlink.com 1.10,2013-09-16 13:43:00,
2013-09-16 09:58:00,62.8,56.0,30.09,ENE,72,0.0,4.0,78,0.00,,,0.04,weatherlink.com 1.10,2013-09-16 13:58:00,
2013-09-16 10:13:00,62.9,56.0,30.08,ENE,72,0.0,5.0,77,0.00,,,0.04,weatherlink.com 1.10,2013-09-16 14:13:00,
2013-09-16 10:28:00,63.1,56.0,30.08,NE,48,1.0,4.0,77,0.00,,,0.04,weatherlink.com 1.10,2013-09-16 14:28:00,
2013-09-16 10:43:00,63.4,55.0,30.08,ENE,63,3.0,4.0,75,0.00,,,0.04,weatherlink.com 1.10,2013-09-16 14:43:00,
2013-09-16 10:58:00,63.8,55.0,30.08,ENE,58,2.0,4.0,73,0.00,,,0.04,weatherlink.com 1.10,2013-09-16 14:58:00,
2013-09-16 11:13:00,64.6,54.0,30.08,NE,50,0.0,5.0,68,0.00,,,0.04,weatherlink.com 1.10,2013-09-16 15:13:00,
2013-09-16 11:28:00,64.7,53.0,30.08,ENE,78,0.0,4.0,66,0.00,,,0.04,weatherlink.com 1.10,2013-09-16 15:28:00,
2013-09-16 11:43:00,64.9,53.0,30.07,SE,136,1.0,4.0,65,0.00,,,0.04,weatherlink.com 1.10,2013-09-16 15:43:00,
2013-09-16 11:58:00,65.2,53.0,30.07,ESE,115,0.0,7.0,65,0.00,,,0.04,weatherlink.com 1.10,2013-09-16 15:58:00,
2013-09-16 12:13:00,65.2,53.0,30.07,SW,232,0.0,4.0,65,0.00,,,0.04,weatherlink.com 1.10,2013-09-16 16:13:00,
2013-09-16 12:28:00,65.9,53.0,30.07,East,83,1.0,4.0,64,0.00,,,0.04,weatherlink.com 1.10,2013-09-16 16:28:00,
2013-09-16 12:43:00,66.9,53.0,30.07,WSW,255,0.0,3.0,61,0.00,,,0.04,weatherlink.com 1.10,2013-09-16 16:43:00,
2013-09-16 17:57:00,69.5,51.0,30.08,ENE,76,2.0,4.0,53,0.00,,,0.04,weatherlink.com 1.10,2013-09-16 21:57:00,
2013-09-16 18:14:00,69.0,52.0,30.08,ENE,67,2.0,9.0,54,0.00,,,0.04,weatherlink.com 1.10,2013-09-16 22:14:00,
2013-09-16 18:28:00,69.0,52.0,30.09,North,5,4.0,6.0,54,0.00,,,0.04,weatherlink.com 1.10,2013-09-16 22:28:00,
2013-09-16 18:43:00,68.5,52.0,30.09,East,79,0.0,3.0,55,0.00,,,0.04,weatherlink.com 1.10,2013-09-16 22:43:00,
2013-09-16 18:58:00,68.0,52.0,30.09,ENE,65,0.0,4.0,56,0.00,,,0.04,weatherlink.com 1.10,2013-09-16 22:58:00,
2013-09-16 19:13:00,67.6,52.0,30.10,WSW,250,2.0,4.0,58,0.00,,,0.04,weatherlink.com 1.10,2013-09-16 23:13:00,
2013-09-16 19:28:00,67.3,52.0,30.10,ENE,60,3.0,6.0,58,0.00,,,0.04,weatherlink.com 1.10,2013-09-16 23:28:00,
2013-09-16 19:43:00,67.1,52.0,30.11,NNW,336,1.0,4.0,58,0.00,,,0.04,weatherlink.com 1.10,2013-09-16 23:43:00,
2013-09-16 19:58:00,66.8,51.0,30.11,WSW,238,1.0,5.0,58,0.00,,,0.04,weatherlink.com 1.10,2013-09-16 23:58:00,
2013-09-16 20:13:00,66.5,52.0,30.12,WNW,299,0.0,3.0,59,0.00,,,0.04,weatherlink.com 1.10,2013-09-17 00:13:00,
2013-09-16 20:29:00,66.2,52.0,30.13,ENE,74,1.0,6.0,60,0.00,,,0.04,weatherlink.com 1.10,2013-09-17 00:29:00,
2013-09-16 20:44:00,66.0,52.0,30.14,ENE,68,1.0,7.0,61,0.00,,,0.04,weatherlink.com 1.10,2013-09-17 00:44:00,
2013-09-16 20:59:00,65.4,52.0,30.14,East,96,0.0,6.0,62,0.00,,,0.04,weatherlink.com 1.10,2013-09-17 00:59:00,
2013-09-16 21:14:00,65.0,52.0,30.15,ENE,69,2.0,6.0,63,0.00,,,0.04,weatherlink.com 1.10,2013-09-17 01:14:00,
2013-09-16 21:29:00,64.6,52.0,30.15,West,276,2.0,4.0,64,0.00,,,0.04,weatherlink.com 1.10,2013-09-17 01:29:00,
2013-09-16 21:44:00,64.2,52.0,30.16,ENE,75,1.0,5.0,65,0.00,,,0.04,weatherlink.com 1.10,2013-09-17 01:44:00,
2013-09-16 21:59:00,63.7,52.0,30.17,ESE,121,0.0,8.0,66,0.00,,,0.04,weatherlink.com 1.10,2013-09-17 01:59:00,
2013-09-16 22:14:00,63.5,52.0,30.18,SE,125,3.0,8.0,67,0.00,,,0.04,weatherlink.com 1.10,2013-09-17 02:14:00,
2013-09-16 22:29:00,63.0,53.0,30.19,ENE,63,0.0,4.0,69,0.00,,,0.04,weatherlink.com 1.10,2013-09-17 02:29:00,
2013-09-16 22:44:00,62.1,51.0,30.20,ENE,65,11.0,12.0,68,0.00,,,0.04,weatherlink.com 1.10,2013-09-17 02:44:00,
2013-09-16 22:59:00,61.2,50.0,30.20,ESE,107,5.0,14.0,68,0.00,,,0.04,weatherlink.com 1.10,2013-09-17 02:59:00,
2013-09-16 23:14:00,60.6,50.0,30.21,East,89,3.0,12.0,69,0.00,,,0.04,weatherlink.com 1.10,2013-09-17 03:14:00,
2013-09-16 23:29:00,60.3,50.0,30.22,ENE,60,1.0,8.0,68,0.00,,,0.04,weatherlink.com 1.10,2013-09-17 03:29:00,
2013-09-16 23:44:00,59.6,49.0,30.23,East,93,5.0,8.0,67,0.00,,,0.04,weatherlink.com 1.10,2013-09-17 03:44:00,
2013-09-16 23:59:00,58.8,47.0,30.23,ESE,109,4.0,16.0,64,0.00,,,0.04,weatherlink.com 1.10,2013-09-17 03:59:00,